createdAt,value
2023-01-08T00:01:53.432Z,2.03
2023-01-08T00:04:22.723Z,2.05
2023-01-08T00:06:50.635Z,2.13
2023-01-08T00:09:18.601Z,2.25
2023-01-08T00:11:49.238Z,2.25
2023-01-08T00:14:17.232Z,2.19
2023-01-08T00:16:45.252Z,1.38
2023-01-08T00:19:13.670Z,1.56
2023-01-08T00:21:42.962Z,1.67
2023-01-08T00:24:11.258Z,1.73
2023-01-08T00:26:39.169Z,1.70
2023-01-08T00:29:07.107Z,1.63
2023-01-08T00:31:35.083Z,1.70
2023-01-08T00:34:03.024Z,1.70
2023-01-08T00:36:31.004Z,1.70
2023-01-08T00:39:00.568Z,1.69
2023-01-08T00:41:28.513Z,1.67
2023-01-08T00:43:56.444Z,1.51
2023-01-08T00:46:24.385Z,1.29
2023-01-08T00:48:52.398Z,1.27
2023-01-08T00:51:20.376Z,1.45
2023-01-08T00:53:48.334Z,1.46
2023-01-08T00:56:17.635Z,1.40
2023-01-08T00:58:45.549Z,1.43
2023-01-08T01:01:15.038Z,1.41
2023-01-08T01:03:43.876Z,1.32
2023-01-08T01:06:12.795Z,1.37
2023-01-08T01:08:40.809Z,1.38
2023-01-08T01:11:10.059Z,1.57
2023-01-08T01:13:39.395Z,1.63
2023-01-08T01:16:07.788Z,1.57
2023-01-08T01:18:35.900Z,1.66
2023-01-08T01:21:03.909Z,1.84
2023-01-08T01:23:31.834Z,1.88
2023-01-08T01:25:59.758Z,1.82
2023-01-08T01:28:27.692Z,1.77
2023-01-08T01:30:58.413Z,1.77
2023-01-08T01:33:26.350Z,1.61
2023-01-08T01:36:01.715Z,1.50
2023-01-08T01:38:29.908Z,1.47
2023-01-08T01:40:57.846Z,1.37
2023-01-08T01:43:37.000Z,1.31
2023-01-08T01:46:17.723Z,1.24
2023-01-08T01:48:46.592Z,1.32
2023-01-08T01:51:15.306Z,1.36
2023-01-08T01:53:43.291Z,1.31
2023-01-08T01:56:11.615Z,1.26
2023-01-08T01:58:39.736Z,1.15
2023-01-08T02:01:11.125Z,1.19
2023-01-08T02:03:40.853Z,1.35
2023-01-08T02:06:20.637Z,1.34
2023-01-08T02:08:58.228Z,1.27
2023-01-08T02:11:31.537Z,1.26
2023-01-08T02:14:08.029Z,1.26
2023-01-08T02:16:43.929Z,1.22
2023-01-08T02:19:20.167Z,1.19
2023-01-08T02:22:00.085Z,1.15
2023-01-08T02:24:42.579Z,1.16
2023-01-08T02:27:14.459Z,1.04
2023-01-08T02:29:42.465Z,1.18
2023-01-08T02:32:10.840Z,1.17
2023-01-08T02:34:38.826Z,1.27
2023-01-08T02:37:06.974Z,1.39
2023-01-08T02:39:48.765Z,1.37
2023-01-08T02:42:25.719Z,1.36
2023-01-08T02:44:58.001Z,1.32
2023-01-08T02:47:32.019Z,1.30
2023-01-08T02:50:15.187Z,1.22
2023-01-08T02:52:50.334Z,1.25
2023-01-08T02:55:20.814Z,1.22
2023-01-08T02:57:50.748Z,1.16
2023-01-08T03:00:19.798Z,1.19
2023-01-08T03:02:50.560Z,1.17
2023-01-08T03:05:23.854Z,0.90
2023-01-08T03:07:52.586Z,0.96
2023-01-08T03:10:22.991Z,0.99
2023-01-08T03:12:56.908Z,0.88
2023-01-08T03:15:30.336Z,0.92
2023-01-08T03:18:03.831Z,0.76
2023-01-08T03:20:34.404Z,0.61
2023-01-08T03:23:05.251Z,0.46
2023-01-08T03:25:36.094Z,0.45
2023-01-08T03:28:09.116Z,0.72
2023-01-08T03:30:41.437Z,0.85
2023-01-08T03:33:12.659Z,0.86
2023-01-08T03:35:45.098Z,0.97
2023-01-08T03:38:17.052Z,0.98
2023-01-08T03:40:49.491Z,1.00
2023-01-08T03:43:20.012Z,0.97
2023-01-08T03:45:51.364Z,0.74
2023-01-08T03:48:21.017Z,0.46
2023-01-08T03:50:49.689Z,0.56
2023-01-08T03:53:17.946Z,0.62
2023-01-08T03:55:45.897Z,0.72
2023-01-08T03:58:13.870Z,0.75
2023-01-08T04:00:43.184Z,0.74
2023-01-08T04:03:11.105Z,0.88
2023-01-08T04:05:39.014Z,0.95
2023-01-08T04:08:06.932Z,0.87
2023-01-08T04:10:34.835Z,0.67
2023-01-08T04:13:02.838Z,0.76
2023-01-08T04:15:30.969Z,0.71
2023-01-08T04:18:00.282Z,0.61
2023-01-08T04:20:28.241Z,0.59
2023-01-08T04:22:56.151Z,0.65
2023-01-08T04:25:24.061Z,0.67
2023-01-08T04:27:51.993Z,0.39
2023-01-08T04:30:19.927Z,0.42
2023-01-08T04:32:47.856Z,0.43
2023-01-08T04:35:17.255Z,0.54
2023-01-08T04:37:45.171Z,0.34
2023-01-08T04:40:13.247Z,0.44
2023-01-08T04:42:41.180Z,0.50
2023-01-08T04:45:10.075Z,0.54
2023-01-08T04:47:38.051Z,0.67
2023-01-08T04:50:06.593Z,0.74
2023-01-08T04:52:35.944Z,0.77
2023-01-08T04:55:04.040Z,0.83
2023-01-08T04:57:32.000Z,0.85
2023-01-08T04:59:59.918Z,0.83
2023-01-08T05:02:28.022Z,0.80
2023-01-08T05:04:56.070Z,0.69
2023-01-08T05:07:24.064Z,0.72
2023-01-08T05:09:53.763Z,0.71
2023-01-08T05:12:21.739Z,0.64
2023-01-08T05:14:49.663Z,0.54
2023-01-08T05:17:17.620Z,0.60
2023-01-08T05:19:45.542Z,0.61
2023-01-08T05:22:13.465Z,0.50
2023-01-08T05:24:41.395Z,0.48
2023-01-08T05:27:10.766Z,0.45
2023-01-08T05:29:38.697Z,0.40
2023-01-08T05:32:08.064Z,0.35
2023-01-08T05:34:35.992Z,0.30
2023-01-08T05:37:03.925Z,0.14
2023-01-08T05:39:31.844Z,0.24
2023-01-08T05:41:59.813Z,0.20
2023-01-08T05:44:29.086Z,0.20
2023-01-08T05:46:58.083Z,0.12
2023-01-08T05:49:26.032Z,0.10
2023-01-08T05:51:53.965Z,0.08
2023-01-08T05:54:21.919Z,0.02
2023-01-08T05:56:49.879Z,-0.15
2023-01-08T05:59:17.787Z,-0.09
2023-01-08T06:01:47.117Z,-0.05
2023-01-08T06:04:15.107Z,-0.10
2023-01-08T06:06:43.099Z,-0.08
2023-01-08T06:09:11.023Z,-0.09
2023-01-08T06:11:39.057Z,-0.20
2023-01-08T06:14:07.032Z,-0.15
2023-01-08T06:16:34.955Z,-0.18
2023-01-08T06:19:04.245Z,-0.16
2023-01-08T06:21:32.360Z,-0.20
2023-01-08T06:24:00.289Z,-0.14
2023-01-08T06:26:28.270Z,-0.16
2023-01-08T06:28:56.174Z,-0.10
2023-01-08T06:31:24.150Z,-0.08
2023-01-08T06:33:52.173Z,-0.05
2023-01-08T06:36:21.520Z,-0.03
2023-01-08T06:38:49.452Z,0.02
2023-01-08T06:41:17.380Z,0.19
2023-01-08T06:43:45.338Z,0.19
2023-01-08T06:46:13.361Z,0.30
2023-01-08T06:48:41.332Z,0.27
2023-01-08T06:51:09.338Z,0.37
2023-01-08T06:53:38.632Z,0.49
2023-01-08T06:56:09.463Z,0.56
2023-01-08T06:58:38.835Z,0.74
2023-01-08T07:01:07.592Z,0.79
2023-01-08T07:03:35.594Z,0.83
2023-01-08T07:06:04.050Z,0.96
2023-01-08T07:08:32.046Z,1.05
2023-01-08T07:11:04.888Z,1.15
2023-01-08T07:13:32.873Z,1.32
2023-01-08T07:16:06.985Z,1.40
2023-01-08T07:18:36.147Z,1.37
2023-01-08T07:21:04.351Z,1.61
2023-01-08T07:23:32.815Z,1.78
2023-01-08T07:26:01.799Z,1.89
2023-01-08T07:28:31.454Z,1.93
2023-01-08T07:30:59.526Z,2.04
2023-01-08T07:33:27.479Z,2.20
2023-01-08T07:35:56.631Z,2.27
2023-01-08T07:38:25.029Z,2.40
2023-01-08T07:40:53.276Z,2.60
2023-01-08T07:43:21.528Z,2.73
2023-01-08T07:45:50.822Z,2.89
2023-01-08T07:48:18.746Z,3.04
2023-01-08T07:50:46.762Z,3.14
2023-01-08T07:53:17.261Z,3.11
2023-01-08T07:55:45.573Z,2.98
2023-01-08T07:58:15.376Z,3.16
2023-01-08T08:00:43.544Z,3.05
2023-01-08T08:03:12.916Z,3.15
2023-01-08T08:05:40.919Z,3.19
2023-01-08T08:08:10.664Z,3.32
2023-01-08T08:10:39.364Z,3.20
2023-01-08T08:13:07.758Z,3.10
2023-01-08T08:15:37.100Z,3.34
2023-01-08T08:18:06.780Z,3.43
2023-01-08T08:20:36.499Z,3.49
2023-01-08T08:23:06.210Z,3.51
2023-01-08T08:25:34.199Z,3.46
2023-01-08T08:28:03.395Z,3.65
2023-01-08T08:30:33.221Z,3.86
2023-01-08T08:33:03.736Z,4.00
2023-01-08T08:35:32.523Z,3.99
2023-01-08T08:38:02.118Z,4.12
2023-01-08T08:40:30.301Z,4.10
2023-01-08T08:42:58.959Z,4.11
2023-01-08T08:45:27.487Z,4.19
2023-01-08T08:47:55.635Z,4.19
2023-01-08T08:50:23.691Z,4.25
2023-01-08T08:52:51.748Z,4.46
2023-01-08T08:55:21.072Z,4.52
2023-01-08T08:57:49.482Z,4.69
2023-01-08T09:00:17.839Z,4.81
2023-01-08T09:02:46.067Z,4.88
2023-01-08T09:05:14.142Z,5.00
2023-01-08T09:07:42.059Z,5.06
2023-01-08T09:10:10.848Z,5.15
2023-01-08T09:12:40.169Z,5.35
2023-01-08T09:15:09.296Z,5.28
2023-01-08T09:17:37.537Z,5.35
2023-01-08T09:20:06.564Z,5.37
2023-01-08T09:22:34.597Z,5.40
2023-01-08T09:25:02.522Z,5.44
2023-01-08T09:27:30.442Z,5.57
2023-01-08T09:29:59.744Z,5.57
2023-01-08T09:32:27.680Z,5.66
2023-01-08T09:34:55.608Z,5.75
2023-01-08T09:37:23.633Z,5.86
2023-01-08T09:40:01.762Z,5.96
2023-01-08T09:42:31.750Z,6.07
2023-01-08T09:45:03.755Z,6.00
2023-01-08T09:47:36.121Z,5.93
2023-01-08T09:50:08.527Z,6.01
2023-01-08T09:52:36.524Z,5.90
2023-01-08T09:55:04.863Z,6.00
2023-01-08T09:57:32.830Z,6.15
2023-01-08T10:00:02.473Z,6.18
2023-01-08T10:02:41.632Z,6.12
2023-01-08T10:05:14.560Z,6.25
2023-01-08T10:07:42.596Z,6.43
2023-01-08T10:10:20.974Z,6.43
2023-01-08T10:12:50.598Z,6.39
2023-01-08T10:15:22.400Z,6.42
2023-01-08T10:17:56.052Z,6.56
2023-01-08T10:20:26.321Z,6.33
2023-01-08T10:22:56.579Z,6.53
2023-01-08T10:25:26.778Z,6.58
2023-01-08T10:27:58.994Z,6.64
2023-01-08T10:30:40.017Z,6.73
2023-01-08T10:33:12.835Z,6.85
2023-01-08T10:35:43.417Z,6.80
2023-01-08T10:38:27.007Z,6.94
2023-01-08T10:40:55.240Z,6.89
2023-01-08T10:43:28.097Z,6.87
2023-01-08T10:46:01.135Z,6.90
2023-01-08T10:48:35.386Z,6.99
2023-01-08T10:51:07.278Z,7.06
2023-01-08T10:53:35.743Z,7.09
2023-01-08T10:56:05.763Z,7.12
2023-01-08T10:58:42.827Z,7.03
2023-01-08T11:01:16.997Z,7.04
2023-01-08T11:03:45.154Z,7.12
2023-01-08T11:06:15.403Z,7.15
2023-01-08T11:08:51.853Z,7.26
2023-01-08T11:11:20.114Z,7.28
2023-01-08T11:13:59.982Z,7.31
2023-01-08T11:16:38.443Z,7.37
2023-01-08T11:19:16.510Z,7.61
2023-01-08T11:21:55.186Z,7.61
2023-01-08T11:24:27.412Z,7.61
2023-01-08T11:27:01.444Z,7.77
2023-01-08T11:29:38.904Z,7.84
2023-01-08T11:32:26.446Z,7.84
2023-01-08T11:35:00.401Z,7.75
2023-01-08T11:37:31.530Z,7.82
2023-01-08T11:39:59.490Z,7.87
2023-01-08T11:42:44.216Z,7.96
2023-01-08T11:45:18.359Z,7.89
2023-01-08T11:48:01.351Z,7.87
2023-01-08T11:50:36.583Z,7.97
2023-01-08T11:53:21.356Z,8.06
2023-01-08T11:55:59.568Z,8.00
2023-01-08T11:58:39.469Z,8.11
2023-01-08T12:01:24.337Z,8.06
2023-01-08T12:04:10.966Z,8.14
2023-01-08T12:06:49.127Z,8.15
2023-01-08T12:09:23.789Z,8.16
2023-01-08T12:11:58.172Z,8.20
2023-01-08T12:14:41.425Z,8.30
2023-01-08T12:17:26.819Z,8.21
2023-01-08T12:20:13.493Z,8.42
2023-01-08T12:22:48.667Z,8.43
2023-01-08T12:25:34.200Z,8.35
2023-01-08T12:28:16.710Z,8.42
2023-01-08T12:30:57.971Z,8.35
2023-01-08T12:33:35.141Z,8.37
2023-01-08T12:36:10.212Z,8.39
2023-01-08T12:38:43.327Z,8.45
2023-01-08T12:41:13.168Z,8.39
2023-01-08T12:43:53.312Z,8.45
2023-01-08T12:46:23.999Z,8.48
2023-01-08T12:48:54.124Z,8.48
2023-01-08T12:51:30.161Z,8.50
2023-01-08T12:54:09.285Z,8.54
2023-01-08T12:56:46.868Z,8.51
2023-01-08T12:59:27.672Z,8.52
2023-01-08T13:02:02.822Z,8.55
2023-01-08T13:04:41.280Z,8.55
2023-01-08T13:07:20.492Z,8.44
2023-01-08T13:09:57.040Z,8.43
2023-01-08T13:12:35.066Z,8.50
2023-01-08T13:15:03.720Z,8.48
2023-01-08T13:17:32.127Z,8.46
2023-01-08T13:20:02.990Z,8.47
2023-01-08T13:22:34.947Z,8.49
2023-01-08T13:25:12.031Z,8.49
2023-01-08T13:27:39.955Z,8.52
2023-01-08T13:30:38.330Z,8.54
2023-01-08T13:33:39.729Z,8.55
2023-01-08T13:36:21.075Z,8.59
2023-01-08T13:39:01.196Z,8.57
2023-01-08T13:44:02.726Z,8.67
2023-01-08T13:46:31.405Z,8.70
2023-01-08T13:49:03.034Z,8.70
2023-01-08T13:51:41.973Z,8.73
2023-01-08T13:54:21.766Z,8.59
2023-01-08T13:56:55.552Z,8.68
2023-01-08T13:59:37.892Z,8.58
2023-01-08T14:02:22.523Z,8.64
2023-01-08T14:04:50.852Z,8.63
2023-01-08T14:07:19.343Z,8.63
2023-01-08T14:09:48.647Z,8.63
2023-01-08T14:12:20.467Z,8.72
2023-01-08T14:14:51.934Z,8.76
2023-01-08T14:17:22.723Z,8.66
2023-01-08T14:19:50.973Z,8.65
2023-01-08T14:22:21.746Z,8.60
2023-01-08T14:24:56.817Z,8.54
2023-01-08T14:27:26.344Z,8.59
2023-01-08T14:29:54.526Z,8.47
2023-01-08T14:32:24.505Z,8.46
2023-01-08T14:34:54.382Z,8.06
2023-01-08T14:37:22.413Z,8.18
2023-01-08T14:39:54.679Z,8.14
2023-01-08T14:42:47.349Z,8.08
2023-01-08T14:45:21.638Z,7.97
2023-01-08T14:47:51.534Z,7.67
2023-01-08T14:50:26.078Z,7.64
2023-01-08T14:52:56.368Z,7.61
2023-01-08T14:55:27.981Z,7.33
2023-01-08T14:57:57.734Z,7.46
2023-01-08T15:00:29.061Z,7.42
2023-01-08T15:02:57.550Z,7.27
2023-01-08T15:05:29.837Z,7.20
2023-01-08T15:08:01.608Z,6.99
2023-01-08T15:10:41.074Z,6.96
2023-01-08T15:13:23.860Z,6.83
2023-01-08T15:15:57.967Z,6.80
2023-01-08T15:18:26.690Z,6.71
2023-01-08T15:20:56.250Z,6.65
2023-01-08T15:23:35.233Z,6.61
2023-01-08T15:26:04.849Z,6.44
2023-01-08T15:28:32.806Z,6.43
2023-01-08T15:31:00.781Z,6.34
2023-01-08T15:33:29.083Z,6.25
2023-01-08T15:35:58.016Z,6.17
2023-01-08T15:38:26.000Z,6.11
2023-01-08T15:40:55.287Z,6.12
2023-01-08T15:43:23.974Z,6.05
2023-01-08T15:45:52.447Z,6.03
2023-01-08T15:48:20.447Z,6.02
2023-01-08T15:50:48.504Z,6.09
2023-01-08T15:53:22.475Z,6.13
2023-01-08T15:55:50.732Z,6.23
2023-01-08T15:58:19.101Z,6.27
2023-01-08T16:00:48.503Z,6.31
2023-01-08T16:03:17.392Z,6.24
2023-01-08T16:05:45.412Z,6.13
2023-01-08T16:08:13.356Z,6.10
2023-01-08T16:10:41.305Z,6.05
2023-01-08T16:13:11.864Z,6.02
2023-01-08T16:15:40.317Z,5.96
2023-01-08T16:18:09.639Z,5.86
2023-01-08T16:20:37.914Z,5.81
2023-01-08T16:23:05.952Z,5.76
2023-01-08T16:25:33.944Z,5.70
2023-01-08T16:28:03.158Z,5.67
2023-01-08T16:30:31.135Z,5.59
2023-01-08T16:32:59.036Z,5.47
2023-01-08T16:35:28.384Z,5.44
2023-01-08T16:37:56.632Z,5.40
2023-01-08T16:40:24.601Z,5.30
2023-01-08T16:42:52.566Z,5.25
2023-01-08T16:45:20.539Z,5.21
2023-01-08T16:47:48.460Z,5.14
2023-01-08T16:50:16.592Z,5.03
2023-01-08T16:52:45.894Z,4.86
2023-01-08T16:55:13.838Z,4.86
2023-01-08T16:57:41.973Z,4.79
2023-01-08T17:00:11.172Z,4.78
2023-01-08T17:02:39.243Z,4.73
2023-01-08T17:05:08.125Z,4.36
2023-01-08T17:07:36.361Z,4.38
2023-01-08T17:10:06.700Z,4.36
2023-01-08T17:12:34.626Z,4.32
2023-01-08T17:15:03.116Z,4.25
2023-01-08T17:17:31.056Z,4.17
2023-01-08T17:19:59.008Z,4.08
2023-01-08T17:22:26.993Z,3.99
2023-01-08T17:24:54.959Z,3.97
2023-01-08T17:27:24.663Z,3.99
2023-01-08T17:29:52.588Z,3.93
2023-01-08T17:32:21.676Z,3.89
2023-01-08T17:34:49.611Z,3.95
2023-01-08T17:37:17.572Z,3.94
2023-01-08T17:39:45.785Z,3.85
2023-01-08T17:42:27.696Z,3.46
2023-01-08T17:45:00.474Z,3.31
2023-01-08T17:47:28.599Z,3.12
2023-01-08T17:49:57.595Z,3.37
2023-01-08T17:52:26.935Z,3.33
2023-01-08T17:54:55.070Z,3.21
2023-01-08T17:57:23.166Z,3.02
2023-01-08T17:59:51.489Z,3.09
2023-01-08T18:02:21.117Z,3.16
2023-01-08T18:04:49.146Z,3.27
2023-01-08T18:07:17.255Z,3.41
2023-01-08T18:09:45.893Z,3.44
2023-01-08T18:12:13.810Z,3.47
2023-01-08T18:14:42.092Z,3.47
2023-01-08T18:17:10.028Z,3.55
2023-01-08T18:19:39.548Z,3.50
2023-01-08T18:22:07.527Z,3.34
2023-01-08T18:24:35.814Z,3.44
2023-01-08T18:27:03.756Z,3.34
2023-01-08T18:29:31.689Z,3.31
2023-01-08T18:31:59.683Z,3.28
2023-01-08T18:34:27.761Z,3.13
2023-01-08T18:36:57.130Z,2.84
2023-01-08T18:39:26.659Z,3.13
2023-01-08T18:42:11.788Z,3.23
2023-01-08T18:44:39.820Z,3.20
2023-01-08T18:47:07.753Z,3.06
2023-01-08T18:49:35.901Z,2.86
2023-01-08T18:52:06.052Z,2.85
2023-01-08T18:54:35.394Z,2.74
2023-01-08T18:57:03.564Z,2.67
2023-01-08T18:59:31.527Z,2.58
2023-01-08T19:01:59.608Z,2.67
2023-01-08T19:04:27.627Z,2.74
2023-01-08T19:06:55.750Z,2.63
2023-01-08T19:09:25.303Z,2.67
2023-01-08T19:11:53.276Z,2.66
2023-01-08T19:14:21.205Z,2.55
2023-01-08T19:16:51.526Z,2.52
2023-01-08T19:19:19.976Z,2.40
2023-01-08T19:21:47.928Z,2.28
2023-01-08T19:24:16.043Z,2.16
2023-01-08T19:26:45.447Z,2.07
2023-01-08T19:29:13.940Z,2.04
2023-01-08T19:31:41.990Z,1.91
2023-01-08T19:34:11.239Z,1.98
2023-01-08T19:36:39.441Z,1.86
2023-01-08T19:39:11.143Z,1.97
2023-01-08T19:41:56.892Z,2.05
2023-01-08T19:44:26.354Z,2.12
2023-01-08T19:46:54.576Z,2.02
2023-01-08T19:49:23.632Z,1.94
2023-01-08T19:51:52.743Z,2.07
2023-01-08T19:54:24.709Z,1.96
2023-01-08T19:56:52.787Z,2.07
2023-01-08T19:59:20.830Z,1.93
2023-01-08T20:01:50.278Z,2.07
2023-01-08T20:04:18.327Z,1.95
2023-01-08T20:06:46.264Z,1.32
2023-01-08T20:09:14.209Z,1.26
2023-01-08T20:11:42.195Z,1.65
2023-01-08T20:14:10.264Z,1.72
2023-01-08T20:16:38.261Z,1.73
2023-01-08T20:19:08.214Z,1.73
2023-01-08T20:21:36.166Z,1.73
2023-01-08T20:24:09.086Z,1.54
2023-01-08T20:26:37.849Z,1.69
2023-01-08T20:29:05.897Z,1.29
2023-01-08T20:31:34.648Z,1.16
2023-01-08T20:34:04.168Z,1.19
2023-01-08T20:36:35.089Z,1.36
2023-01-08T20:39:05.224Z,1.41
2023-01-08T20:41:33.180Z,1.45
2023-01-08T20:44:03.726Z,1.56
2023-01-08T20:46:31.669Z,1.58
2023-01-08T20:49:03.609Z,1.64
2023-01-08T20:51:35.107Z,1.83
2023-01-08T20:54:04.494Z,1.87
2023-01-08T20:56:32.525Z,1.87
2023-01-08T20:59:02.601Z,1.81
2023-01-08T21:01:33.925Z,1.81
2023-01-08T21:04:03.477Z,1.75
2023-01-08T21:06:32.933Z,1.89
2023-01-08T21:09:06.705Z,1.94
2023-01-08T21:11:35.401Z,1.96
2023-01-08T21:14:03.388Z,1.87
2023-01-08T21:16:34.838Z,1.89
2023-01-08T21:19:03.588Z,1.86
2023-01-08T21:21:33.522Z,1.84
2023-01-08T21:24:05.465Z,1.86
2023-01-08T21:26:34.624Z,1.73
2023-01-08T21:29:03.967Z,1.31
2023-01-08T21:31:32.018Z,1.31
2023-01-08T21:34:01.502Z,1.27
2023-01-08T21:36:31.462Z,1.45
2023-01-08T21:39:01.004Z,1.43
2023-01-08T21:41:48.513Z,1.43
2023-01-08T21:44:37.368Z,1.26
2023-01-08T21:47:06.899Z,1.39
2023-01-08T21:49:36.069Z,1.35
2023-01-08T21:52:21.370Z,1.35
2023-01-08T21:54:49.326Z,1.37
2023-01-08T21:57:18.763Z,1.39
2023-01-08T21:59:49.631Z,1.26
2023-01-08T22:02:20.324Z,1.10
2023-01-08T22:04:48.461Z,1.17
2023-01-08T22:07:17.843Z,1.21
2023-01-08T22:09:45.797Z,1.18
2023-01-08T22:12:14.197Z,1.29
2023-01-08T22:14:43.602Z,1.35
2023-01-08T22:17:11.706Z,1.43
2023-01-08T22:19:41.317Z,1.42
2023-01-08T22:22:10.974Z,1.10
2023-01-08T22:24:39.540Z,1.30
2023-01-08T22:27:08.095Z,1.27
2023-01-08T22:29:36.253Z,1.66
2023-01-08T22:32:05.927Z,1.69
2023-01-08T22:34:34.318Z,1.82
2023-01-08T22:37:02.737Z,1.77
2023-01-08T22:39:30.985Z,1.87
2023-01-08T22:41:58.931Z,1.87
2023-01-08T22:44:26.910Z,1.82
2023-01-08T22:46:54.856Z,1.86
2023-01-08T22:49:24.177Z,1.89
2023-01-08T22:51:52.213Z,1.89
2023-01-08T22:54:20.147Z,1.78
2023-01-08T22:56:48.092Z,1.68
2023-01-08T22:59:16.032Z,1.58
2023-01-08T23:01:43.961Z,1.54
2023-01-08T23:04:11.972Z,1.62
2023-01-08T23:06:41.316Z,1.62
2023-01-08T23:09:09.307Z,1.58
2023-01-08T23:11:38.003Z,1.62
2023-01-08T23:14:06.115Z,1.42
2023-01-08T23:16:34.305Z,1.35
2023-01-08T23:19:02.547Z,1.30
2023-01-08T23:21:30.573Z,1.30
2023-01-08T23:23:59.899Z,1.29
2023-01-08T23:26:30.387Z,1.25
2023-01-08T23:28:59.232Z,1.10
2023-01-08T23:31:29.077Z,0.79
2023-01-08T23:33:57.313Z,0.99
2023-01-08T23:36:25.902Z,0.87
2023-01-08T23:38:55.972Z,1.08
2023-01-08T23:41:33.802Z,1.06
2023-01-08T23:44:06.101Z,0.77
2023-01-08T23:46:34.814Z,0.92
2023-01-08T23:49:02.817Z,0.98
2023-01-08T23:51:30.735Z,1.01
2023-01-08T23:53:58.649Z,0.99
2023-01-08T23:56:28.872Z,0.93
2023-01-08T23:58:58.060Z,0.96
